Time;durP1;ratioP1;P1;durP2;ratioP2;P2;SDS_P1;SDS_P2;PMS_P1;PMS_P2;Temp;Humidity;BMP_temperature;BMP_pressure;BME280_temperature;BME280_humidity;BME280_pressure;Samples;Min_cycle;Max_cycle;Signal;HPM_P1;HPM_P2
2022/06/27 00:02:26;;;;;;;1.43;1.33;;;;;;;23.66;52.26;98430.81;5133906;27;42484;-72
2022/06/27 00:04:53;;;;;;;1.50;1.40;;;;;;;23.64;52.28;98439.09;5134909;27;43841;-72
2022/06/27 00:07:21;;;;;;;1.30;1.20;;;;;;;23.65;52.49;98429.97;5134486;27;42057;-73
2022/06/27 00:09:49;;;;;;;1.27;1.17;;;;;;;23.63;52.29;98449.06;5116225;27;39958;-72
2022/06/27 00:12:18;;;;;;;1.30;1.30;;;;;;;23.65;52.17;98448.88;5116186;27;42664;-73
2022/06/27 00:14:45;;;;;;;1.50;1.40;;;;;;;23.66;52.35;98463.25;5116013;27;41368;-73
2022/06/27 00:17:13;;;;;;;1.30;1.20;;;;;;;23.63;52.34;98454.47;5134359;27;43136;-73
2022/06/27 00:19:41;;;;;;;1.37;1.27;;;;;;;23.67;51.98;98470.34;5115958;27;40186;-72
2022/06/27 00:22:09;;;;;;;1.33;1.30;;;;;;;23.67;52.09;98479.28;5116025;27;42782;-72
2022/06/27 00:24:37;;;;;;;1.37;1.30;;;;;;;23.66;52.16;98474.91;5116107;27;43590;-73
2022/06/27 00:27:06;;;;;;;1.60;1.50;;;;;;;23.67;52.72;98482.00;5098502;27;41569;-73
2022/06/27 00:29:35;;;;;;;1.40;1.30;;;;;;;23.67;53.31;98487.41;5134414;27;39908;-73
2022/06/27 00:32:03;;;;;;;1.33;1.23;;;;;;;23.65;54.10;98494.84;5098580;27;42499;-73
2022/06/27 00:34:31;;;;;;;2.10;1.87;;;;;;;23.61;55.31;98498.97;5134319;27;42694;-73
2022/06/27 00:36:59;;;;;;;1.80;1.70;;;;;;;23.50;57.55;98497.56;5115656;27;42217;-72
2022/06/27 00:39:27;;;;;;;1.80;1.70;;;;;;;23.43;58.16;98509.28;5098755;27;40269;-72
2022/06/27 00:41:55;;;;;;;3.13;2.17;;;;;;;23.38;58.34;98519.78;5115080;27;41808;-72
2022/06/27 00:44:33;;;;;;;2.00;1.90;;;;;;;23.33;58.72;98530.34;5115802;27;42583;-72
2022/06/27 00:47:03;;;;;;;2.27;2.07;;;;;;;23.31;59.80;98530.50;5114572;27;42918;-71
2022/06/27 00:49:31;;;;;;;2.00;1.90;;;;;;;23.27;59.95;98529.19;5115595;27;41070;-72
2022/06/27 00:51:59;;;;;;;2.20;2.10;;;;;;;23.09;61.92;98532.25;5098519;27;40633;-72
2022/06/27 00:54:27;;;;;;;2.10;2.00;;;;;;;22.88;62.88;98534.78;5115459;27;42827;-71
2022/06/27 00:56:55;;;;;;;2.10;2.00;;;;;;;22.71;63.77;98539.47;5115269;27;42268;-71
2022/06/27 00:59:24;;;;;;;2.40;2.20;;;;;;;22.58;64.60;98545.47;5098451;27;40269;-77
2022/06/27 01:01:52;;;;;;;2.40;2.20;;;;;;;22.46;65.31;98563.09;5115387;27;41758;-76
2022/06/27 01:04:21;;;;;;;2.50;2.30;;;;;;;22.31;66.55;98559.47;5115716;27;42712;-77
2022/06/27 01:06:51;;;;;;;4.77;2.80;;;;;;;22.22;67.85;98555.16;5098375;27;42046;-76
2022/06/27 01:09:20;;;;;;;3.20;2.70;;;;;;;22.10;67.80;98561.94;5098630;27;38867;-76
2022/06/27 01:11:48;;;;;;;4.67;3.20;;;;;;;22.12;67.85;98559.91;5098498;27;41409;-76
2022/06/27 01:14:17;;;;;;;4.30;3.50;;;;;;;22.15;67.72;98554.16;5114372;27;42470;-76
2022/06/27 01:16:45;;;;;;;4.30;3.83;;;;;;;22.10;68.04;98519.63;5114856;27;41179;-76
2022/06/27 01:19:17;;;;;;;4.20;3.90;;;;;;;22.09;67.90;98523.34;5115302;27;39907;-76
2022/06/27 01:21:49;;;;;;;3.57;3.27;;;;;;;22.13;68.93;98540.84;5097849;27;40657;-76
2022/06/27 01:24:20;;;;;;;4.43;3.40;;;;;;;22.10;68.40;98562.78;5112368;27;43609;-76
2022/06/27 01:26:50;;;;;;;3.70;3.40;;;;;;;22.10;68.66;98570.88;5098301;27;41176;-76
2022/06/27 01:29:20;;;;;;;3.70;3.40;;;;;;;22.16;68.25;98578.25;5098037;27;40333;-76
2022/06/27 01:31:49;;;;;;;4.03;3.53;;;;;;;22.17;68.10;98584.50;5114975;27;43274;-76
2022/06/27 01:34:18;;;;;;;3.87;3.57;;;;;;;22.19;67.55;98582.47;5097984;27;43997;-76
2022/06/27 01:36:47;;;;;;;3.77;3.47;;;;;;;22.24;67.57;98596.28;5097661;27;42320;-76
2022/06/27 01:39:20;;;;;;;6.50;3.70;;;;;;;22.29;66.67;98599.25;5098064;27;38655;-76
2022/06/27 01:41:50;;;;;;;4.03;3.73;;;;;;;22.34;67.64;98610.38;5114480;27;41853;-76
2022/06/27 01:44:19;;;;;;;4.07;3.77;;;;;;;22.34;67.29;98613.09;5098053;27;43155;-76
2022/06/27 01:46:50;;;;;;;4.40;4.00;;;;;;;22.37;67.46;98625.38;5080575;27;41470;-77
2022/06/27 01:49:18;;;;;;;4.13;3.83;;;;;;;22.36;67.28;98643.44;5114892;27;40209;-76
2022/06/27 01:51:48;;;;;;;4.63;4.33;;;;;;;22.37;67.10;98661.31;5114747;27;41597;-76
2022/06/27 01:54:20;;;;;;;5.77;4.80;;;;;;;22.32;68.01;98673.63;5081339;27;43545;-76
2022/06/27 01:56:49;;;;;;;4.43;4.03;;;;;;;22.33;67.31;98681.53;5113449;27;43068;-75
2022/06/27 01:59:18;;;;;;;4.60;4.20;;;;;;;22.34;67.32;98691.31;5097425;27;40662;-75
2022/06/27 02:01:47;;;;;;;4.90;4.50;;;;;;;22.34;67.56;98683.22;5114332;27;41767;-76
2022/06/27 02:04:16;;;;;;;4.63;4.33;;;;;;;22.31;67.61;98677.34;5097559;27;41974;-76
2022/06/27 02:06:46;;;;;;;4.37;4.07;;;;;;;22.22;68.29;98684.63;5097121;27;41081;-75
2022/06/27 02:09:16;;;;;;;4.60;4.30;;;;;;;22.14;68.64;98677.38;5114759;27;39980;-76
2022/06/27 02:11:49;;;;;;;5.30;4.90;;;;;;;22.01;69.89;98687.03;5114447;27;41786;-75
2022/06/27 02:14:17;;;;;;;5.40;5.00;;;;;;;21.78;71.43;98676.09;5111657;27;43828;-76
2022/06/27 02:16:45;;;;;;;5.57;5.03;;;;;;;21.60;72.50;98688.94;5114287;27;42574;-76
2022/06/27 02:19:16;;;;;;;5.77;5.30;;;;;;;21.40;72.58;98672.25;5097357;27;38806;-75
2022/06/27 02:21:46;;;;;;;5.43;4.93;;;;;;;21.36;73.76;98708.66;5114184;27;41133;-76
2022/06/27 02:24:14;;;;;;;4.80;4.40;;;;;;;21.28;74.25;98712.16;5114182;27;42092;-76
2022/06/27 02:26:43;;;;;;;5.40;5.00;;;;;;;21.13;74.28;98693.13;5114015;27;42361;-76
2022/06/27 02:29:12;;;;;;;5.10;4.67;;;;;;;21.16;75.00;98708.91;5097309;27;40352;-76
2022/06/27 02:31:48;;;;;;;6.47;5.87;;;;;;;21.08;75.34;98697.31;5097008;27;40747;-76
2022/06/27 02:34:16;;;;;;;5.07;4.67;;;;;;;21.03;75.37;98697.78;5080605;27;42603;-77
2022/06/27 02:36:47;;;;;;;5.47;5.03;;;;;;;20.93;74.65;98686.34;5132576;27;43138;-76
2022/06/27 02:39:19;;;;;;;5.23;4.73;;;;;;;21.00;75.34;98692.75;5114214;27;40487;-76
2022/06/27 02:41:49;;;;;;;5.20;4.70;;;;;;;20.96;74.76;98686.00;5096459;27;40658;-77
2022/06/27 02:44:21;;;;;;;4.77;4.27;;;;;;;20.93;75.13;98682.78;5097133;27;41413;-76
2022/06/27 02:46:51;;;;;;;5.73;5.23;;;;;;;20.88;75.58;98677.94;5112990;27;42393;-76
2022/06/27 02:49:20;;;;;;;4.40;4.10;;;;;;;20.81;75.69;98682.28;5096938;27;39036;-76
2022/06/27 02:51:55;;;;;;;4.77;4.37;;;;;;;20.87;75.54;98686.16;5096930;27;41441;-76
2022/06/27 02:54:31;;;;;;;5.70;5.23;;;;;;;20.83;76.58;98672.19;5111136;27;43808;-77
2022/06/27 02:57:05;;;;;;;6.00;5.50;;;;;;;20.82;76.83;98672.34;5113360;27;42244;-76
2022/06/27 02:59:38;;;;;;;5.03;4.53;;;;;;;20.78;76.33;98650.28;5096997;27;38809;-77
2022/06/27 03:02:09;;;;;;;4.90;4.50;;;;;;;20.74;76.38;98638.19;5096559;27;40448;-76
2022/06/27 03:05:05;;;;;;;5.63;5.13;;;;;;;20.69;76.36;98613.63;5096883;27;43441;-76
2022/06/27 03:07:38;;;;;;;5.73;5.23;;;;;;;20.65;77.51;98590.72;5096637;27;42338;-76
2022/06/27 03:10:06;;;;;;;5.53;5.03;;;;;;;20.65;77.45;98571.88;5097293;27;39273;-76
2022/06/27 03:12:35;;;;;;;5.43;4.93;;;;;;;20.58;78.51;98569.03;5096570;27;41753;-77
2022/06/27 03:15:04;;;;;;;5.23;4.83;;;;;;;20.60;78.22;98560.81;5096775;27;42622;-77
2022/06/27 03:17:33;;;;;;;6.30;5.70;;;;;;;20.56;80.28;98546.00;5113898;27;42056;-76
2022/06/27 03:20:19;;;;;;;6.50;5.90;;;;;;;20.54;81.57;98513.03;5113736;27;38856;-76
2022/06/27 03:23:08;;;;;;;6.57;6.00;;;;;;;20.43;82.81;98410.13;5099201;27;40749;-76
2022/06/27 03:25:45;;;;;;;6.93;6.33;;;;;;;20.25;84.40;98326.09;5110916;27;42774;-75
2022/06/27 03:28:13;;;;;;;7.27;6.63;;;;;;;20.08;85.19;98319.03;5113894;27;42527;-77
2022/06/27 03:30:44;;;;;;;7.40;6.80;;;;;;;19.93;85.37;98305.44;5113652;27;40483;-77
2022/06/27 03:33:13;;;;;;;6.97;6.20;;;;;;;19.96;85.64;98341.88;5096467;27;40744;-77
2022/06/27 03:35:51;;;;;;;6.67;6.07;;;;;;;19.97;84.75;98386.56;5111148;27;42645;-77
2022/06/27 03:38:19;;;;;;;5.80;5.30;;;;;;;20.00;83.77;98397.00;5099301;27;42504;-76
2022/06/27 03:40:47;;;;;;;5.73;5.23;;;;;;;20.06;83.42;98386.41;5116626;27;39686;-76
2022/06/27 03:43:15;;;;;;;7.10;6.13;;;;;;;20.06;85.30;98385.56;5117156;27;40688;-77
2022/06/27 03:45:46;;;;;;;5.87;5.40;;;;;;;20.03;84.84;98385.91;5117273;27;43558;-76
2022/06/27 03:49:59;;;;;;;7.03;6.43;;;;;;;20.00;85.42;98379.03;5100280;27;41413;-76
2022/06/27 03:51:20;;;;;;;7.67;7.07;;;;;;;19.92;85.90;98367.41;5135411;27;39922;-76
2022/06/27 03:53:47;;;;;;;7.03;6.43;;;;;;;19.92;85.96;98372.78;5099820;27;40562;-76
2022/06/27 03:56:15;;;;;;;7.50;6.80;;;;;;;19.94;85.06;98394.97;5117129;27;43790;-77
2022/06/27 03:58:43;;;;;;;7.27;6.67;;;;;;;19.96;84.27;98418.00;5116777;27;42553;-77
2022/06/27 04:01:12;;;;;;;6.97;6.37;;;;;;;20.08;83.76;98423.88;5099272;27;39929;-78
2022/06/27 04:03:40;;;;;;;6.33;5.63;;;;;;;20.16;83.07;98434.63;5100170;27;41532;-78
2022/06/27 04:06:14;;;;;;;6.17;5.67;;;;;;;20.18;82.60;98438.00;5116023;27;42901;-77
2022/06/27 04:08:42;;;;;;;6.13;5.63;;;;;;;20.23;82.45;98457.19;5119547;27;42165;-78
2022/06/27 04:11:10;;;;;;;5.80;5.30;;;;;;;20.24;82.07;98447.25;5121485;27;39918;-79
2022/06/27 04:13:41;;;;;;;6.97;6.37;;;;;;;20.28;82.08;98470.94;5120934;27;42145;-78
2022/06/27 04:16:29;;;;;;;6.03;5.53;;;;;;;20.34;81.70;98472.97;5122654;27;41899;-78
2022/06/27 04:19:21;;;;;;;6.33;5.73;;;;;;;20.31;81.51;98442.88;5092024;27;41101;-79
2022/06/27 04:22:09;;;;;;;6.40;5.90;;;;;;;20.44;81.46;98465.63;5118837;27;38505;-77
2022/06/27 04:24:56;;;;;;;6.10;5.60;;;;;;;20.51;80.49;98462.28;5116846;27;41101;-77
2022/06/27 04:27:43;;;;;;;5.90;5.50;;;;;;;20.60;80.66;98455.88;5116662;27;43771;-77
2022/06/27 04:30:16;;;;;;;5.50;5.10;;;;;;;20.64;79.96;98460.75;5099384;27;42331;-77
2022/06/27 04:32:48;;;;;;;6.43;5.83;;;;;;;20.69;79.66;98438.69;5098466;27;38720;-76
2022/06/27 04:35:17;;;;;;;5.87;5.17;;;;;;;20.83;78.93;98453.31;5113193;27;42514;-78
2022/06/27 04:37:45;;;;;;;5.07;4.67;;;;;;;20.92;78.90;98473.81;5116235;27;42621;-78
2022/06/27 04:40:42;;;;;;;5.50;5.10;;;;;;;20.97;78.51;98472.31;5025808;27;41000;-78
2022/06/27 04:43:12;;;;;;;5.40;4.93;;;;;;;21.03;78.14;98455.47;5113119;27;39747;-78
2022/06/27 04:45:41;;;;;;;5.07;4.67;;;;;;;21.23;77.83;98482.91;5098833;27;40859;-78
2022/06/27 04:48:22;;;;;;;5.57;5.13;;;;;;;21.33;77.33;98477.31;5100350;27;43214;-78
2022/06/27 04:50:50;;;;;;;5.33;4.83;;;;;;;21.34;77.12;98446.66;5098665;27;41158;-78
2022/06/27 04:53:19;;;;;;;5.57;5.03;;;;;;;21.64;76.84;98467.41;5098903;27;39967;-79
2022/06/27 04:55:49;;;;;;;6.40;5.80;;;;;;;21.78;76.98;98495.47;5099048;27;40718;-78
2022/06/27 04:58:18;;;;;;;5.33;4.90;;;;;;;21.88;76.84;98484.50;5113068;27;43527;-79
2022/06/27 05:00:46;;;;;;;5.80;5.30;;;;;;;21.92;76.70;98488.50;5098424;27;42202;-79
2022/06/27 05:03:19;;;;;;;5.70;5.20;;;;;;;21.84;75.98;98474.06;5131255;27;40004;-78
2022/06/27 05:05:59;;;;;;;5.40;4.90;;;;;;;21.95;76.13;98494.41;5098540;27;43209;-79
2022/06/27 05:08:31;;;;;;;5.77;5.27;;;;;;;21.82;76.27;98477.94;5098694;27;44347;-79
2022/06/27 05:11:00;;;;;;;5.87;5.37;;;;;;;21.75;76.28;98477.00;5113603;27;42516;-80
2022/06/27 05:13:28;;;;;;;5.97;5.40;;;;;;;21.86;76.63;98511.63;5098757;27;39195;-78
2022/06/27 05:15:56;;;;;;;7.20;5.70;;;;;;;21.78;76.57;98515.19;5115741;27;42425;-79
2022/06/27 05:18:24;;;;;;;6.30;5.03;;;;;;;21.71;76.32;98511.53;5098825;27;42883;-79
2022/06/27 05:20:53;;;;;;;5.40;4.87;;;;;;;21.72;76.32;98515.91;5098489;27;42694;-79
2022/06/27 05:23:22;;;;;;;4.93;4.53;;;;;;;21.72;76.11;98545.56;5098767;27;38881;-79
2022/06/27 05:25:50;;;;;;;5.47;4.97;;;;;;;21.68;76.41;98530.75;5098596;27;40701;-78
2022/06/27 05:28:18;;;;;;;4.87;4.47;;;;;;;21.64;76.32;98529.41;5098836;27;43123;-81
2022/06/27 05:30:50;;;;;;;4.23;3.93;;;;;;;21.72;76.13;98566.28;5098679;27;41258;-81
2022/06/27 05:33:18;;;;;;;5.00;4.60;;;;;;;21.74;76.01;98578.56;5098466;27;38861;-80
2022/06/27 05:35:46;;;;;;;5.03;4.23;;;;;;;21.53;76.11;98535.16;5115434;27;42686;-78
2022/06/27 05:38:14;;;;;;;3.90;3.60;;;;;;;21.90;75.68;98583.06;5098399;27;43272;-79
2022/06/27 05:40:44;;;;;;;4.70;4.30;;;;;;;22.06;75.88;98593.81;5115047;27;43528;-79
2022/06/27 05:43:14;;;;;;;4.73;4.33;;;;;;;22.14;74.95;98587.53;5115600;27;39105;-79
2022/06/27 05:45:43;;;;;;;4.80;4.40;;;;;;;22.29;74.71;98598.44;5112812;27;41508;-79
2022/06/27 05:48:29;;;;;;;4.43;4.03;;;;;;;22.38;74.50;98592.81;5115111;27;41476;-79
2022/06/27 05:51:33;;;;;;;4.73;4.20;;;;;;;22.61;73.72;98581.22;5033090;28;42149;-79
2022/06/27 05:54:02;;;;;;;4.37;4.07;;;;;;;22.64;72.96;98548.44;5099487;27;41669;-81
2022/06/27 05:56:31;;;;;;;4.43;4.13;;;;;;;23.23;72.00;98615.22;5097769;27;40998;-78
2022/06/27 05:59:00;;;;;;;3.77;3.50;;;;;;;23.67;71.17;98611.78;5097755;27;44088;-79
2022/06/27 06:01:29;;;;;;;4.10;3.80;;;;;;;24.14;70.06;98614.09;5097454;27;42230;-79
2022/06/27 06:03:57;;;;;;;3.80;3.50;;;;;;;24.53;69.42;98619.22;5098123;27;38809;-78
2022/06/27 06:06:25;;;;;;;3.50;3.20;;;;;;;24.59;68.30;98612.22;5097775;27;40850;-79
2022/06/27 06:08:55;;;;;;;2.57;2.37;;;;;;;24.39;68.12;98590.28;5114956;27;43466;-79
2022/06/27 06:11:24;;;;;;;2.17;1.97;;;;;;;24.39;65.81;98628.19;5115026;27;42355;-79
2022/06/27 06:13:54;;;;;;;1.90;1.80;;;;;;;24.11;65.65;98616.38;5097939;27;38790;-79
2022/06/27 06:16:22;;;;;;;1.63;1.50;;;;;;;24.05;65.89;98620.66;5114428;27;42065;-79
2022/06/27 06:18:52;;;;;;;1.50;1.40;;;;;;;24.04;66.07;98632.50;5097760;27;41797;-79
2022/06/27 06:21:21;;;;;;;1.47;1.37;;;;;;;23.79;65.89;98596.75;5112809;27;42101;-79
2022/06/27 06:23:49;;;;;;;1.90;1.50;;;;;;;23.83;66.21;98606.19;5098000;27;39044;-79
2022/06/27 06:26:17;;;;;;;2.03;1.93;;;;;;;23.99;66.25;98635.75;5097247;27;40632;-73
2022/06/27 06:28:46;;;;;;;2.00;1.80;;;;;;;24.05;66.23;98641.44;5114279;27;42897;-74
2022/06/27 06:31:21;;;;;;;2.70;1.80;;;;;;;24.10;66.65;98644.44;5114115;27;43185;-74
2022/06/27 06:33:54;;;;;;;1.67;1.57;;;;;;;24.12;66.79;98647.78;5097016;27;38947;-74
2022/06/27 06:36:23;;;;;;;2.10;1.83;;;;;;;23.98;66.93;98642.19;5114056;27;41696;-74
2022/06/27 06:38:52;;;;;;;2.10;2.00;;;;;;;24.00;66.38;98672.59;5097262;27;42755;-73
2022/06/27 06:41:21;;;;;;;2.13;1.93;;;;;;;23.93;67.17;98682.50;5096325;27;42502;-74
2022/06/27 06:43:49;;;;;;;2.80;2.30;;;;;;;23.84;67.24;98689.00;5132429;27;39753;-73
2022/06/27 06:46:39;;;;;;;2.40;2.20;;;;;;;23.69;67.63;98696.25;5116636;27;42455;-81
2022/06/27 06:49:10;;;;;;;3.13;2.57;;;;;;;23.56;67.48;98699.56;5093755;27;43550;-81
2022/06/27 06:51:42;;;;;;;2.97;2.70;;;;;;;23.56;67.25;98701.44;5132304;27;42263;-74
2022/06/27 06:54:12;;;;;;;3.00;2.70;;;;;;;23.67;67.57;98695.59;5106346;28;39855;-79
2022/06/27 06:56:40;;;;;;;3.27;2.70;;;;;;;23.96;67.62;98706.47;5079280;27;40680;-74
2022/06/27 06:59:09;;;;;;;2.83;2.63;;;;;;;24.28;66.04;98707.16;5130293;27;42948;-78
2022/06/27 07:01:39;;;;;;;3.00;2.80;;;;;;;24.65;64.59;98682.66;5095015;27;42609;-77
2022/06/27 07:04:07;;;;;;;3.43;3.13;;;;;;;25.29;63.27;98728.03;5111660;27;40474;-77
2022/06/27 07:06:36;;;;;;;3.07;2.77;;;;;;;25.41;62.42;98735.47;5113192;27;42764;-79
2022/06/27 07:09:04;;;;;;;3.10;2.80;;;;;;;25.32;62.23;98738.50;5094845;27;44553;-76
2022/06/27 07:11:32;;;;;;;3.13;2.60;;;;;;;25.21;61.39;98739.84;5095701;27;43882;-76
2022/06/27 07:14:00;;;;;;;3.00;2.77;;;;;;;25.32;61.62;98752.91;5134241;27;40062;-77
2022/06/27 07:16:29;;;;;;;3.57;3.27;;;;;;;25.44;61.54;98757.81;5116312;27;43307;-79
2022/06/27 07:19:00;;;;;;;3.13;2.93;;;;;;;25.38;60.79;98743.97;5098900;27;41723;-77
2022/06/27 07:21:31;;;;;;;2.30;2.20;;;;;;;25.51;60.83;98751.41;5132717;27;43119;-79
2022/06/27 07:24:00;;;;;;;3.47;3.23;;;;;;;25.55;60.51;98762.72;5099160;27;41214;-77
2022/06/27 07:26:28;;;;;;;3.20;2.90;;;;;;;25.57;60.27;98758.78;5116428;27;41637;-78
2022/06/27 07:28:57;;;;;;;3.03;2.70;;;;;;;25.65;59.91;98755.13;5115562;27;43177;-80
2022/06/27 07:31:25;;;;;;;2.80;2.60;;;;;;;25.67;59.29;98755.75;5115952;27;43292;-78
2022/06/27 07:33:54;;;;;;;2.47;2.30;;;;;;;25.88;59.32;98766.59;5116030;27;40843;-79
2022/06/27 07:36:26;;;;;;;3.73;2.87;;;;;;;25.96;60.01;98769.19;5096236;27;40835;-79
2022/06/27 07:38:58;;;;;;;2.37;2.27;;;;;;;25.89;59.07;98773.69;5099032;27;41842;-82
2022/06/27 07:41:26;;;;;;;2.80;2.60;;;;;;;25.70;59.63;98768.94;5116340;27;41154;-79
2022/06/27 07:43:55;;;;;;;2.50;2.40;;;;;;;25.63;59.85;98768.88;5115918;27;40309;-81
2022/06/27 07:46:23;;;;;;;3.03;2.80;;;;;;;25.71;59.62;98770.63;5134928;27;41675;-79
2022/06/27 07:48:51;;;;;;;2.70;2.40;;;;;;;25.49;60.13;98722.78;5098700;27;44272;-80
2022/06/27 07:51:20;;;;;;;2.73;2.27;;;;;;;25.67;59.48;98775.59;5115922;27;42436;-75
2022/06/27 07:53:51;;;;;;;3.43;2.77;;;;;;;25.42;59.86;98763.41;5115267;27;40424;-75
2022/06/27 07:56:20;;;;;;;3.97;2.50;;;;;;;25.21;60.40;98757.97;5098429;27;41241;-77
2022/06/27 07:58:48;;;;;;;3.47;3.00;;;;;;;25.08;60.49;98742.41;5114959;27;41521;-78
2022/06/27 08:01:19;;;;;;;3.87;3.57;;;;;;;25.19;60.58;98714.81;5098667;27;41008;-78
2022/06/27 08:03:49;;;;;;;2.90;2.70;;;;;;;25.51;59.77;98720.72;5109705;27;40099;-79
2022/06/27 08:06:20;;;;;;;3.13;2.93;;;;;;;25.80;60.13;98717.06;5094562;27;41923;-78
2022/06/27 08:08:51;;;;;;;3.27;3.07;;;;;;;26.24;58.93;98727.59;5109475;27;44470;-80
2022/06/27 08:11:23;;;;;;;2.83;2.50;;;;;;;26.74;57.81;98740.03;5132039;27;42282;-76
2022/06/27 08:14:03;;;;;;;3.57;3.27;;;;;;;27.25;56.49;98742.34;5097366;27;40000;-79
2022/06/27 08:16:31;;;;;;;3.80;3.50;;;;;;;27.62;54.21;98724.66;5098549;27;40769;-84
2022/06/27 08:19:00;;;;;;;3.10;2.80;;;;;;;28.82;52.39;98762.50;5115684;27;43641;-78
2022/06/27 08:21:30;;;;;;;3.23;3.00;;;;;;;29.46;50.75;98775.22;5114903;27;43147;-77
2022/06/27 08:24:02;;;;;;;3.50;3.30;;;;;;;29.21;49.91;98794.22;5097401;27;38992;-80
2022/06/27 08:26:31;;;;;;;3.77;3.20;;;;;;;28.77;50.84;98787.66;5132553;27;42694;-79
2022/06/27 08:29:00;;;;;;;3.40;3.10;;;;;;;28.43;51.22;98785.22;5110519;27;42507;-77
2022/06/27 08:31:30;;;;;;;3.30;3.10;;;;;;;28.30;51.44;98796.97;5133883;27;43114;-79
2022/06/27 08:34:01;;;;;;;3.70;3.40;;;;;;;28.29;51.93;98794.44;5133637;27;40115;-80
2022/06/27 08:36:30;;;;;;;3.70;3.40;;;;;;;28.57;51.84;98786.84;5112775;27;41752;-75
2022/06/27 08:39:01;;;;;;;4.30;3.70;;;;;;;28.71;51.35;98796.66;5097675;27;43632;-75
2022/06/27 08:41:29;;;;;;;3.40;3.10;;;;;;;28.68;51.19;98799.84;5096738;27;40945;-75
2022/06/27 08:44:00;;;;;;;3.17;2.97;;;;;;;28.57;51.31;98808.66;5097389;27;40013;-80
2022/06/27 08:46:32;;;;;;;3.50;3.20;;;;;;;28.26;51.38;98798.44;5115140;27;40707;-84
2022/06/27 08:49:00;;;;;;;3.00;2.80;;;;;;;28.00;51.33;98812.00;5096815;27;41724;-75
2022/06/27 08:51:28;;;;;;;3.27;3.07;;;;;;;27.93;52.38;98811.19;5114184;27;41818;-75
2022/06/27 08:53:56;;;;;;;3.50;3.30;;;;;;;27.83;51.83;98804.22;5132842;27;40071;-75
2022/06/27 08:56:27;;;;;;;3.40;3.20;;;;;;;27.66;52.47;98793.97;5115219;27;41129;-79
2022/06/27 08:58:58;;;;;;;3.73;3.47;;;;;;;27.47;53.08;98796.38;5115592;27;43103;-83
2022/06/27 09:01:27;;;;;;;4.23;3.93;;;;;;;27.41;53.17;98810.81;5098452;27;40880;-79
2022/06/27 09:04:02;;;;;;;3.63;3.33;;;;;;;27.43;53.03;98806.03;5095298;28;38914;-85
2022/06/27 09:06:33;;;;;;;3.70;3.40;;;;;;;27.60;52.28;98811.09;5111681;28;42594;-80
2022/06/27 09:09:08;;;;;;;3.83;3.40;;;;;;;27.66;52.45;98810.28;5126873;27;42827;-79
2022/06/27 09:11:38;;;;;;;4.13;3.83;;;;;;;27.70;52.85;98812.38;5098585;27;42300;-78
2022/06/27 09:14:08;;;;;;;3.73;3.43;;;;;;;27.75;52.53;98807.16;5115877;27;41710;-80
2022/06/27 09:16:36;;;;;;;3.80;3.50;;;;;;;27.93;52.55;98816.63;5116506;27;41677;-82
2022/06/27 09:19:04;;;;;;;3.30;3.10;;;;;;;28.22;51.79;98811.63;5098934;27;43527;-82
2022/06/27 09:21:31;;;;;;;3.43;3.23;;;;;;;28.50;50.91;98819.56;5115472;27;41152;-77
2022/06/27 09:24:01;;;;;;;3.60;3.20;;;;;;;28.66;50.32;98823.75;5115948;27;39894;-75
2022/06/27 09:26:31;;;;;;;3.80;3.50;;;;;;;28.61;50.09;98804.47;5115285;27;41648;-77
2022/06/27 09:29:01;;;;;;;3.33;3.13;;;;;;;28.64;49.93;98825.00;5115046;27;44439;-75
2022/06/27 09:31:31;;;;;;;3.60;3.37;;;;;;;28.56;50.10;98834.25;5098260;27;41315;-76
2022/06/27 09:34:05;;;;;;;3.63;3.30;;;;;;;28.49;50.09;98844.31;5111427;27;40689;-75
2022/06/27 09:36:35;;;;;;;2.97;2.77;;;;;;;28.44;50.67;98861.25;5097233;27;40979;-75
2022/06/27 09:39:04;;;;;;;3.67;3.37;;;;;;;28.35;50.77;98861.69;5114081;27;43477;-75
2022/06/27 09:41:35;;;;;;;3.60;3.30;;;;;;;28.12;50.39;98853.91;5113777;27;43383;-78
2022/06/27 09:44:10;;;;;;;3.73;3.43;;;;;;;28.05;50.60;98853.91;5097813;27;39262;-78
2022/06/27 09:46:42;;;;;;;3.53;3.33;;;;;;;28.03;50.80;98852.44;5113644;27;41564;-77
2022/06/27 09:49:14;;;;;;;3.23;3.03;;;;;;;27.99;51.10;98860.16;5097180;27;43421;-73
2022/06/27 09:51:43;;;;;;;3.63;3.33;;;;;;;27.86;51.66;98860.16;5097021;27;41096;-76
2022/06/27 09:54:11;;;;;;;3.10;2.90;;;;;;;27.66;51.33;98870.16;5114107;27;39840;-77
2022/06/27 09:56:42;;;;;;;3.00;2.80;;;;;;;27.47;51.72;98861.69;5097258;27;41736;-76
2022/06/27 09:59:12;;;;;;;3.53;3.23;;;;;;;27.40;52.07;98860.81;5114062;27;43997;-75
2022/06/27 10:01:42;;;;;;;3.70;3.40;;;;;;;27.53;51.92;98860.88;5114153;27;42842;-73
2022/06/27 10:04:12;;;;;;;3.30;3.10;;;;;;;27.64;51.99;98864.06;5097479;27;39966;-75
2022/06/27 10:06:43;;;;;;;3.13;2.93;;;;;;;27.53;50.96;98866.31;5114172;27;41863;-75
2022/06/27 10:09:15;;;;;;;3.10;2.90;;;;;;;27.27;51.27;98858.06;5110379;28;41617;-78
2022/06/27 10:11:42;;;;;;;3.17;2.90;;;;;;;27.11;51.76;98882.84;5110553;28;42038;-73
2022/06/27 10:14:33;;;;;;;3.17;2.97;;;;;;;26.81;52.37;98877.66;5129272;27;39904;-74
2022/06/27 10:17:01;;;;;;;3.10;2.90;;;;;;;26.64;52.78;98876.25;5109317;27;40842;-74
2022/06/27 10:19:30;;;;;;;3.33;2.93;;;;;;;26.44;53.07;98867.13;5113805;27;42684;-75
2022/06/27 10:21:58;;;;;;;3.00;2.80;;;;;;;26.27;53.57;98846.69;5132149;27;43046;-74
2022/06/27 10:24:32;;;;;;;3.43;3.03;;;;;;;26.44;53.73;98858.97;5113654;27;39909;-74
2022/06/27 10:27:04;;;;;;;2.97;2.77;;;;;;;26.62;53.68;98864.75;5131454;27;42502;-74
2022/06/27 10:29:38;;;;;;;3.43;3.13;;;;;;;26.88;53.52;98871.41;5129097;27;46548;-76
2022/06/27 10:32:08;;;;;;;3.57;3.27;;;;;;;27.13;52.31;98876.19;5113551;27;41384;-74
2022/06/27 10:35:09;;;;;;;3.10;2.90;;;;;;;27.63;51.47;98889.59;5113735;27;40067;-75
2022/06/27 10:37:40;;;;;;;3.40;3.20;;;;;;;28.37;50.54;98905.91;5113273;27;41727;-74
2022/06/27 10:40:57;;;;;;;2.90;2.70;;;;;;;29.30;49.15;98910.25;5096499;27;42031;-73
2022/06/27 10:43:42;;;;;;;2.80;2.60;;;;;;;30.17;47.51;98906.91;5113129;27;41117;-73
2022/06/27 10:46:44;;;;;;;2.67;2.47;;;;;;;30.64;46.16;98916.50;5133063;27;39895;-74
2022/06/27 10:49:26;;;;;;;2.90;2.70;;;;;;;30.81;45.54;98908.53;5135442;27;42706;-73
2022/06/27 10:52:22;;;;;;;3.67;2.80;;;;;;;30.80;45.11;98908.75;5134666;27;42629;-73
2022/06/27 10:54:52;;;;;;;2.40;2.20;;;;;;;31.08;44.23;98892.69;5079859;28;41584;-75
2022/06/27 10:57:44;;;;;;;3.43;2.40;;;;;;;31.88;43.39;98895.38;5098315;27;39836;-73
2022/06/27 11:00:28;;;;;;;2.30;2.20;;;;;;;32.30;41.58;98898.97;5132362;27;42731;-73
2022/06/27 11:02:57;;;;;;;2.70;2.50;;;;;;;32.18;42.13;98896.22;5116278;27;43672;-72
2022/06/27 11:05:26;;;;;;;2.37;2.27;;;;;;;31.96;42.25;98901.34;5135313;27;42223;-72
2022/06/27 11:07:54;;;;;;;2.10;2.00;;;;;;;31.85;42.48;98923.22;5135136;27;39989;-74
2022/06/27 11:10:22;;;;;;;2.30;2.20;;;;;;;31.94;42.66;98921.81;5099931;27;43068;-72
2022/06/27 11:12:50;;;;;;;2.40;1.93;;;;;;;31.74;42.25;98917.47;5135172;27;42883;-72
2022/06/27 11:15:18;;;;;;;2.73;2.53;;;;;;;31.31;42.65;98925.72;5117114;27;42277;-73
2022/06/27 11:17:46;;;;;;;2.20;2.00;;;;;;;30.95;44.02;98931.13;5116415;27;38788;-74
2022/06/27 11:20:27;;;;;;;3.10;1.97;;;;;;;30.54;44.24;98915.31;5116651;27;41625;-72
2022/06/27 11:22:57;;;;;;;3.07;2.10;;;;;;;30.37;44.70;98931.38;5099354;27;41578;-72
2022/06/27 11:25:27;;;;;;;2.10;2.00;;;;;;;30.25;44.98;98927.69;5116326;27;43586;-72
2022/06/27 11:27:57;;;;;;;1.73;1.63;;;;;;;30.27;44.71;98937.34;5116398;27;39675;-72
2022/06/27 11:33:25;;;;;;;2.07;1.97;;;;;;;30.45;44.11;98952.13;5128390;27;43456;-74
2022/06/27 11:35:55;;;;;;;2.00;1.80;;;;;;;30.35;44.34;98926.13;5134559;27;41350;-74
2022/06/27 11:38:25;;;;;;;1.60;1.50;;;;;;;30.36;44.39;98936.00;5115467;27;39002;-73
2022/06/27 11:41:07;;;;;;;1.70;1.60;;;;;;;30.71;43.39;98949.22;5133927;27;41668;-77
2022/06/27 11:43:49;;;;;;;1.77;1.67;;;;;;;31.56;42.76;98958.50;5122887;27;42848;-75
2022/06/27 11:46:25;;;;;;;2.07;1.97;;;;;;;32.29;41.60;98963.94;5132106;27;42784;-76
2022/06/27 11:48:55;;;;;;;1.93;1.73;;;;;;;32.91;40.40;98975.41;5098512;27;40252;-73
2022/06/27 11:51:27;;;;;;;1.67;1.57;;;;;;;33.67;38.76;98966.22;5115230;27;40969;-74
2022/06/27 11:54:01;;;;;;;1.87;1.77;;;;;;;33.98;37.77;98958.66;5112830;27;42720;-74
2022/06/27 11:56:30;;;;;;;1.97;1.87;;;;;;;34.51;36.37;98972.03;5132399;27;42412;-74
2022/06/27 11:59:00;;;;;;;1.93;1.83;;;;;;;34.21;37.69;98975.03;5114710;27;38866;-78